Time,TemperatureF,DewpointF,PressureIn,WindDirection,WindDirectionDegrees,WindSpeedMPH,WindSpeedGustMPH,Humidity,HourlyPrecipIn,Conditions,Clouds,dailyrainin,SoftwareType,DateUTC
2013-04-20 00:04:00,47.3,46.0,29.58,NW,319,3.0,13.0,96,0.10,,,0.86,weatherlink.com 1.10,2013-04-20 04:04:00,
2013-04-20 00:19:00,46.5,46.0,29.59,NW,325,5.0,13.0,96,0.12,,,0.05,weatherlink.com 1.10,2013-04-20 04:19:00,
2013-04-20 00:34:00,45.5,45.0,29.58,NNW,345,7.0,10.0,96,0.13,,,0.09,weatherlink.com 1.10,2013-04-20 04:34:00,
2013-04-20 00:50:00,44.7,44.0,29.58,North,360,7.0,10.0,96,0.13,,,0.10,weatherlink.com 1.10,2013-04-20 04:50:00,
2013-04-20 01:05:00,44.0,43.0,29.58,NNW,327,6.0,10.0,96,0.12,,,0.12,weatherlink.com 1.10,2013-04-20 05:05:00,
2013-04-20 01:20:00,43.7,43.0,29.58,NNW,347,4.0,8.0,96,0.08,,,0.13,weatherlink.com 1.10,2013-04-20 05:20:00,
2013-04-20 01:35:00,42.5,42.0,29.56,NNW,336,2.0,8.0,96,0.05,,,0.14,weatherlink.com 1.10,2013-04-20 05:35:00,
2013-04-20 01:50:00,41.0,40.0,29.59,NNW,347,6.0,11.0,96,0.06,,,0.16,weatherlink.com 1.10,2013-04-20 05:50:00,
2013-04-20 02:05:00,39.5,39.0,29.58,NNW,330,6.0,9.0,96,0.05,,,0.17,weatherlink.com 1.10,2013-04-20 06:05:00,
2013-04-20 02:20:00,38.7,38.0,29.59,NNE,12,6.0,13.0,97,0.05,,,0.18,weatherlink.com 1.10,2013-04-20 06:20:00,
2013-04-20 02:35:00,38.0,37.0,29.58,ENE,63,7.0,12.0,97,0.06,,,0.20,weatherlink.com 1.10,2013-04-20 06:35:00,
2013-04-20 02:50:00,37.7,37.0,29.59,NNE,24,4.0,9.0,97,0.05,,,0.21,weatherlink.com 1.10,2013-04-20 06:50:00,
2013-04-20 03:05:00,37.5,37.0,29.59,ESE,111,7.0,11.0,97,0.06,,,0.23,weatherlink.com 1.10,2013-04-20 07:05:00,
2013-04-20 03:20:00,37.1,36.0,29.58,NW,311,9.0,16.0,97,0.06,,,0.24,weatherlink.com 1.10,2013-04-20 07:20:00,
2013-04-20 03:35:00,37.0,36.0,29.61,North,355,3.0,14.0,97,0.05,,,0.25,weatherlink.com 1.10,2013-04-20 07:35:00,
2013-04-20 03:50:00,36.8,36.0,29.63,NNW,348,7.0,13.0,97,0.03,,,0.25,weatherlink.com 1.10,2013-04-20 07:50:00,
2013-04-20 04:05:00,36.3,36.0,29.61,North,9,5.0,11.0,97,0.03,,,0.26,weatherlink.com 1.10,2013-04-20 08:05:00,
2013-04-20 04:20:00,35.5,35.0,29.61,ENE,68,5.0,11.0,97,0.02,,,0.26,weatherlink.com 1.10,2013-04-20 08:20:00,
2013-04-20 04:35:00,34.9,34.0,29.61,NW,319,3.0,11.0,97,0.01,,,0.26,weatherlink.com 1.10,2013-04-20 08:35:00,
2013-04-20 04:50:00,34.5,34.0,29.63,North,355,4.0,10.0,97,0.01,,,0.26,weatherlink.com 1.10,2013-04-20 08:50:00,
2013-04-20 05:05:00,34.2,34.0,29.63,NNW,342,3.0,9.0,98,0.00,,,0.26,weatherlink.com 1.10,2013-04-20 09:05:00,
2013-04-20 05:20:00,33.7,33.0,29.65,North,5,4.0,10.0,97,0.01,,,0.27,weatherlink.com 1.10,2013-04-20 09:20:00,
2013-04-20 05:35:00,33.5,33.0,29.65,North,360,3.0,15.0,97,0.01,,,0.27,weatherlink.com 1.10,2013-04-20 09:35:00,
2013-04-20 05:50:00,33.7,33.0,29.66,NNW,345,4.0,14.0,97,0.01,,,0.27,weatherlink.com 1.10,2013-04-20 09:50:00,
2013-04-20 06:06:00,33.8,33.0,29.68,NNW,343,6.0,13.0,97,0.01,,,0.27,weatherlink.com 1.10,2013-04-20 10:06:00,
2013-04-20 06:21:00,33.9,33.0,29.68,NNE,24,2.0,10.0,97,0.00,,,0.27,weatherlink.com 1.10,2013-04-20 10:21:00,
2013-04-20 06:36:00,34.0,33.0,29.69,NNE,29,3.0,5.0,97,0.00,,,0.27,weatherlink.com 1.10,2013-04-20 10:36:00,
2013-04-20 06:51:00,34.4,34.0,29.70,NNE,26,1.0,4.0,97,0.00,,,0.27,weatherlink.com 1.10,2013-04-20 10:51:00,
2013-04-20 07:06:00,34.8,34.0,29.70,WSW,257,3.0,6.0,96,0.00,,,0.27,weatherlink.com 1.10,2013-04-20 11:06:00,
2013-04-20 07:21:00,35.3,34.0,29.70,West,273,0.0,3.0,95,0.00,,,0.27,weatherlink.com 1.10,2013-04-20 11:21:00,
2013-04-20 07:36:00,35.5,33.0,29.71,NE,34,3.0,8.0,92,0.00,,,0.27,weatherlink.com 1.10,2013-04-20 11:36:00,
2013-04-20 07:51:00,35.9,33.0,29.72,ENE,76,2.0,10.0,89,0.00,,,0.27,weatherlink.com 1.10,2013-04-20 11:51:00,
2013-04-20 08:06:00,36.3,33.0,29.72,WNW,301,1.0,13.0,88,0.00,,,0.27,weatherlink.com 1.10,2013-04-20 12:06:00,
2013-04-20 08:21:00,36.8,32.0,29.71,NNE,17,3.0,13.0,83,0.00,,,0.27,weatherlink.com 1.10,2013-04-20 12:21:00,
2013-04-20 08:36:00,36.9,32.0,29.71,ESE,113,5.0,14.0,81,0.00,,,0.27,weatherlink.com 1.10,2013-04-20 12:36:00,
2013-04-20 08:51:00,37.2,32.0,29.72,NNE,22,7.0,11.0,80,0.00,,,0.27,weatherlink.com 1.10,2013-04-20 12:51:00,
2013-04-20 09:06:00,37.5,31.0,29.71,SSE,156,5.0,8.0,77,0.00,,,0.27,weatherlink.com 1.10,2013-04-20 13:06:00,
2013-04-20 09:21:00,37.7,31.0,29.72,NW,309,5.0,12.0,77,0.00,,,0.27,weatherlink.com 1.10,2013-04-20 13:21:00,
2013-04-20 09:36:00,37.6,30.0,29.72,NNE,16,10.0,19.0,73,0.00,,,0.27,weatherlink.com 1.10,2013-04-20 13:36:00,
2013-04-20 09:51:00,37.7,29.0,29.73,SSE,163,5.0,17.0,70,0.00,,,0.27,weatherlink.com 1.10,2013-04-20 13:51:00,
2013-04-20 10:06:00,37.9,28.0,29.75,South,175,5.0,12.0,67,0.00,,,0.27,weatherlink.com 1.10,2013-04-20 14:06:00,
2013-04-20 10:21:00,39.4,31.0,29.75,SW,226,6.0,8.0,72,0.00,,,0.27,weatherlink.com 1.10,2013-04-20 14:21:00,
2013-04-20 10:36:00,39.3,28.0,29.77,West,259,3.0,10.0,64,0.00,,,0.27,weatherlink.com 1.10,2013-04-20 14:36:00,
2013-04-20 10:51:00,39.1,29.0,29.78,NNE,26,7.0,12.0,66,0.00,,,0.27,weatherlink.com 1.10,2013-04-20 14:51:00,
2013-04-20 11:06:00,40.4,29.0,29.79,SSW,202,10.0,16.0,64,0.00,,,0.27,weatherlink.com 1.10,2013-04-20 15:06:00,
2013-04-20 11:21:00,40.7,28.0,29.79,SSE,154,1.0,10.0,60,0.00,,,0.27,weatherlink.com 1.10,2013-04-20 15:21:00,
2013-04-20 11:36:00,42.0,28.0,29.81,South,185,2.0,12.0,57,0.00,,,0.27,weatherlink.com 1.10,2013-04-20 15:36:00,
2013-04-20 11:51:00,41.1,29.0,29.81,South,181,1.0,13.0,62,0.00,,,0.27,weatherlink.com 1.10,2013-04-20 15:51:00,
2013-04-20 12:06:00,42.2,27.0,29.82,SSW,196,2.0,12.0,55,0.00,,,0.27,weatherlink.com 1.10,2013-04-20 16:06:00,
2013-04-20 12:21:00,42.2,27.0,29.82,SSW,203,4.0,14.0,56,0.00,,,0.27,weatherlink.com 1.10,2013-04-20 16:21:00,
2013-04-20 12:36:00,42.2,28.0,29.82,SSE,165,7.0,17.0,57,0.00,,,0.27,weatherlink.com 1.10,2013-04-20 16:36:00,
2013-04-20 12:51:00,41.6,27.0,29.83,WNW,294,2.0,20.0,56,0.00,,,0.27,weatherlink.com 1.10,2013-04-20 16:51:00,
2013-04-20 13:06:00,41.6,27.0,29.83,NNW,331,3.0,11.0,56,0.00,,,0.27,weatherlink.com 1.10,2013-04-20 17:06:00,
2013-04-20 13:21:00,41.7,26.0,29.83,South,183,1.0,12.0,53,0.00,,,0.27,weatherlink.com 1.10,2013-04-20 17:21:00,
2013-04-20 13:36:00,42.3,27.0,29.84,SW,234,4.0,15.0,54,0.00,,,0.27,weatherlink.com 1.10,2013-04-20 17:36:00,
2013-04-20 13:51:00,42.5,26.0,29.84,North,5,5.0,13.0,53,0.00,,,0.27,weatherlink.com 1.10,2013-04-20 17:51:00,
2013-04-20 14:06:00,42.2,26.0,29.84,NNW,345,2.0,17.0,53,0.00,,,0.27,weatherlink.com 1.10,2013-04-20 18:06:00,
2013-04-20 14:21:00,44.1,27.0,29.84,West,279,2.0,18.0,51,0.00,,,0.27,weatherlink.com 1.10,2013-04-20 18:21:00,
2013-04-20 14:36:00,42.9,27.0,29.85,North,355,6.0,16.0,54,0.00,,,0.27,weatherlink.com 1.10,2013-04-20 18:36:00,
2013-04-20 14:51:00,42.8,26.0,29.85,NE,51,13.0,15.0,52,0.00,,,0.27,weatherlink.com 1.10,2013-04-20 18:51:00,
2013-04-20 15:06:00,42.9,27.0,29.86,East,90,1.0,16.0,53,0.00,,,0.27,weatherlink.com 1.10,2013-04-20 19:06:00,
2013-04-20 15:21:00,43.5,25.0,29.86,East,86,3.0,15.0,49,0.00,,,0.27,weatherlink.com 1.10,2013-04-20 19:21:00,
2013-04-20 15:36:00,43.9,25.0,29.87,NE,36,11.0,22.0,48,0.00,,,0.27,weatherlink.com 1.10,2013-04-20 19:36:00,
2013-04-20 15:51:00,43.4,26.0,29.88,West,259,1.0,16.0,50,0.00,,,0.27,weatherlink.com 1.10,2013-04-20 19:51:00,
2013-04-20 16:06:00,43.6,25.0,29.88,NNW,348,6.0,17.0,49,0.00,,,0.27,weatherlink.com 1.10,2013-04-20 20:06:00,
2013-04-20 16:22:00,43.3,25.0,29.89,NNE,29,1.0,13.0,48,0.00,,,0.27,weatherlink.com 1.10,2013-04-20 20:22:00,
2013-04-20 16:37:00,42.3,25.0,29.90,NNW,344,9.0,16.0,50,0.00,,,0.27,weatherlink.com 1.10,2013-04-20 20:37:00,
2013-04-20 16:52:00,42.0,25.0,29.91,WSW,257,2.0,15.0,51,0.00,,,0.27,weatherlink.com 1.10,2013-04-20 20:52:00,
2013-04-20 17:07:00,42.5,26.0,29.92,North,355,8.0,11.0,52,0.00,,,0.27,weatherlink.com 1.10,2013-04-20 21:07:00,
2013-04-20 17:22:00,41.7,25.0,29.93,East,99,1.0,14.0,52,0.00,,,0.27,weatherlink.com 1.10,2013-04-20 21:22:00,
2013-04-20 17:37:00,41.5,26.0,29.95,NNW,339,7.0,13.0,54,0.00,,,0.27,weatherlink.com 1.10,2013-04-20 21:37:00,
2013-04-20 17:52:00,40.5,25.0,29.96,North,5,8.0,14.0,55,0.00,,,0.27,weatherlink.com 1.10,2013-04-20 21:52:00,
2013-04-20 18:07:00,40.4,25.0,29.97,NE,49,2.0,14.0,55,0.00,,,0.27,weatherlink.com 1.10,2013-04-20 22:07:00,
2013-04-20 18:22:00,40.0,24.0,29.98,NE,53,11.0,13.0,54,0.00,,,0.27,weatherlink.com 1.10,2013-04-20 22:22:00,
2013-04-20 18:37:00,39.6,25.0,29.99,NNE,15,5.0,14.0,57,0.00,,,0.27,weatherlink.com 1.10,2013-04-20 22:37:00,
2013-04-20 18:52:00,39.1,25.0,30.00,NNW,345,4.0,15.0,58,0.00,,,0.27,weatherlink.com 1.10,2013-04-20 22:52:00,
2013-04-20 19:07:00,38.2,24.0,30.01,NNW,347,4.0,12.0,58,0.00,,,0.27,weatherlink.com 1.10,2013-04-20 23:07:00,
2013-04-20 19:22:00,37.7,25.0,30.02,NW,315,2.0,10.0,60,0.00,,,0.27,weatherlink.com 1.10,2013-04-20 23:22:00,
2013-04-20 19:37:00,37.3,24.0,30.04,NNW,330,8.0,10.0,60,0.00,,,0.27,weatherlink.com 1.10,2013-04-20 23:37:00,
2013-04-20 19:52:00,36.4,24.0,30.05,NNE,25,1.0,13.0,61,0.00,,,0.27,weatherlink.com 1.10,2013-04-20 23:52:00,
2013-04-20 20:07:00,35.7,23.0,30.07,ENE,62,7.0,15.0,61,0.00,,,0.27,weatherlink.com 1.10,2013-04-21 00:07:00,
2013-04-20 20:22:00,35.3,23.0,30.08,NNW,348,3.0,15.0,62,0.00,,,0.27,weatherlink.com 1.10,2013-04-21 00:22:00,
2013-04-20 20:37:00,34.4,22.0,30.10,NNE,32,8.0,14.0,62,0.00,,,0.27,weatherlink.com 1.10,2013-04-21 00:37:00,
2013-04-20 20:52:00,33.6,22.0,30.12,North,11,5.0,18.0,62,0.00,,,0.27,weatherlink.com 1.10,2013-04-21 00:52:00,
2013-04-20 21:07:00,32.6,21.0,30.13,NE,47,4.0,16.0,62,0.00,,,0.27,weatherlink.com 1.10,2013-04-21 01:07:00,
2013-04-20 21:22:00,31.9,20.0,30.14,NW,325,5.0,18.0,63,0.00,,,0.27,weatherlink.com 1.10,2013-04-21 01:22:00,
2013-04-20 21:37:00,30.9,19.0,30.15,NNE,25,4.0,15.0,62,0.00,,,0.27,weatherlink.com 1.10,2013-04-21 01:37:00,
2013-04-20 21:53:00,30.2,18.0,30.16,NNW,340,6.0,17.0,62,0.00,,,0.27,weatherlink.com 1.10,2013-04-21 01:53:00,
2013-04-20 22:08:00,29.7,18.0,30.17,NNW,346,11.0,15.0,62,0.00,,,0.27,weatherlink.com 1.10,2013-04-21 02:08:00,
2013-04-20 22:23:00,29.4,18.0,30.18,ESE,117,4.0,18.0,62,0.00,,,0.27,weatherlink.com 1.10,2013-04-21 02:23:00,
2013-04-20 22:38:00,28.9,18.0,30.20,NW,325,5.0,12.0,65,0.00,,,0.27,weatherlink.com 1.10,2013-04-21 02:38:00,
2013-04-20 22:53:00,28.5,19.0,30.20,NW,321,4.0,12.0,68,0.00,,,0.27,weatherlink.com 1.10,2013-04-21 02:53:00,
2013-04-20 23:08:00,28.1,20.0,30.20,NNE,17,8.0,14.0,72,0.00,,,0.27,weatherlink.com 1.10,2013-04-21 03:08:00,
2013-04-20 23:23:00,27.8,21.0,30.20,ENE,77,3.0,15.0,75,0.00,,,0.27,weatherlink.com 1.10,2013-04-21 03:23:00,
2013-04-20 23:38:00,27.6,21.0,30.20,East,101,3.0,17.0,77,0.00,,,0.27,weatherlink.com 1.10,2013-04-21 03:38:00,
2013-04-20 23:53:00,27.5,22.0,30.21,NNW,336,2.0,17.0,78,0.00,,,0.27,weatherlink.com 1.10,2013-04-21 03:53:00,